sensor_id;sensor_type;location;lat;lon;timestamp;pressure;altitude;pressure_sealevel;temperature;humidity
35291;BME280;21411;50.024;19.220;2023-04-15T00:01:58;97591.02;;;9.18;100.00
35291;BME280;21411;50.024;19.220;2023-04-15T00:04:26;97589.92;;;9.12;100.00
35291;BME280;21411;50.024;19.220;2023-04-15T00:06:53;97588.05;;;9.05;100.00
35291;BME280;21411;50.024;19.220;2023-04-15T00:09:20;97595.11;;;8.99;100.00
35291;BME280;21411;50.024;19.220;2023-04-15T00:11:47;97599.21;;;8.94;100.00
35291;BME280;21411;50.024;19.220;2023-04-15T00:14:13;97597.30;;;8.90;100.00
35291;BME280;21411;50.024;19.220;2023-04-15T00:16:40;97598.84;;;8.86;100.00
35291;BME280;21411;50.024;19.220;2023-04-15T00:19:07;97600.33;;;8.83;100.00
35291;BME280;21411;50.024;19.220;2023-04-15T00:21:34;97606.84;;;8.81;100.00
35291;BME280;21411;50.024;19.220;2023-04-15T00:24:01;97619.42;;;8.79;100.00
35291;BME280;21411;50.024;19.220;2023-04-15T00:26:27;97626.92;;;8.76;100.00
35291;BME280;21411;50.024;19.220;2023-04-15T00:28:54;97630.52;;;8.71;100.00
35291;BME280;21411;50.024;19.220;2023-04-15T00:31:20;97632.94;;;8.65;100.00
35291;BME280;21411;50.024;19.220;2023-04-15T00:33:47;97636.36;;;8.60;100.00
35291;BME280;21411;50.024;19.220;2023-04-15T00:36:14;97641.91;;;8.54;100.00
35291;BME280;21411;50.024;19.220;2023-04-15T00:38:41;97650.17;;;8.51;100.00
35291;BME280;21411;50.024;19.220;2023-04-15T00:41:08;97652.64;;;8.49;100.00
35291;BME280;21411;50.024;19.220;2023-04-15T00:43:35;97652.73;;;8.48;100.00
35291;BME280;21411;50.024;19.220;2023-04-15T00:46:03;97648.11;;;8.48;100.00
35291;BME280;21411;50.024;19.220;2023-04-15T00:48:31;97650.27;;;8.48;100.00
35291;BME280;21411;50.024;19.220;2023-04-15T00:50:58;97649.39;;;8.48;100.00
35291;BME280;21411;50.024;19.220;2023-04-15T00:53:24;97653.00;;;8.47;100.00
35291;BME280;21411;50.024;19.220;2023-04-15T00:55:51;97652.91;;;8.46;100.00
35291;BME280;21411;50.024;19.220;2023-04-15T00:58:18;97649.73;;;8.46;100.00
35291;BME280;21411;50.024;19.220;2023-04-15T01:00:44;97645.84;;;8.46;100.00
35291;BME280;21411;50.024;19.220;2023-04-15T01:03:11;97643.26;;;8.45;100.00
35291;BME280;21411;50.024;19.220;2023-04-15T01:05:38;97643.09;;;8.43;100.00
35291;BME280;21411;50.024;19.220;2023-04-15T01:08:05;97637.71;;;8.39;100.00
35291;BME280;21411;50.024;19.220;2023-04-15T01:10:32;97640.67;;;8.37;100.00
35291;BME280;21411;50.024;19.220;2023-04-15T01:12:58;97639.91;;;8.35;100.00
35291;BME280;21411;50.024;19.220;2023-04-15T01:15:25;97642.91;;;8.35;100.00
35291;BME280;21411;50.024;19.220;2023-04-15T01:17:52;97646.65;;;8.35;100.00
35291;BME280;21411;50.024;19.220;2023-04-15T01:20:19;97644.44;;;8.36;100.00
35291;BME280;21411;50.024;19.220;2023-04-15T01:22:48;97640.66;;;8.35;100.00
35291;BME280;21411;50.024;19.220;2023-04-15T01:25:18;97640.14;;;8.32;100.00
35291;BME280;21411;50.024;19.220;2023-04-15T01:27:46;97641.27;;;8.29;100.00
35291;BME280;21411;50.024;19.220;2023-04-15T01:30:12;97638.76;;;8.25;100.00
35291;BME280;21411;50.024;19.220;2023-04-15T01:32:39;97638.85;;;8.22;100.00
35291;BME280;21411;50.024;19.220;2023-04-15T01:35:06;97640.59;;;8.18;100.00
35291;BME280;21411;50.024;19.220;2023-04-15T01:37:34;97651.22;;;8.15;100.00
35291;BME280;21411;50.024;19.220;2023-04-15T01:40:00;97655.98;;;8.13;100.00
35291;BME280;21411;50.024;19.220;2023-04-15T01:42:27;97660.59;;;8.11;100.00
35291;BME280;21411;50.024;19.220;2023-04-15T01:44:54;97664.79;;;8.09;100.00
35291;BME280;21411;50.024;19.220;2023-04-15T01:47:20;97666.36;;;8.07;100.00
35291;BME280;21411;50.024;19.220;2023-04-15T01:49:47;97669.51;;;8.01;100.00
35291;BME280;21411;50.024;19.220;2023-04-15T01:52:14;97671.81;;;7.94;100.00
35291;BME280;21411;50.024;19.220;2023-04-15T01:54:41;97672.36;;;7.89;100.00
35291;BME280;21411;50.024;19.220;2023-04-15T01:57:07;97671.33;;;7.86;100.00
35291;BME280;21411;50.024;19.220;2023-04-15T01:59:34;97671.90;;;7.84;100.00
35291;BME280;21411;50.024;19.220;2023-04-15T02:02:01;97674.41;;;7.79;100.00
35291;BME280;21411;50.024;19.220;2023-04-15T02:04:28;97675.52;;;7.73;100.00
35291;BME280;21411;50.024;19.220;2023-04-15T02:06:55;97676.33;;;7.69;100.00
35291;BME280;21411;50.024;19.220;2023-04-15T02:09:22;97679.33;;;7.67;100.00
35291;BME280;21411;50.024;19.220;2023-04-15T02:11:50;97688.88;;;7.65;100.00
35291;BME280;21411;50.024;19.220;2023-04-15T02:14:16;97691.64;;;7.59;100.00
35291;BME280;21411;50.024;19.220;2023-04-15T02:16:43;97687.59;;;7.54;100.00
35291;BME280;21411;50.024;19.220;2023-04-15T02:19:09;97687.83;;;7.49;100.00
35291;BME280;21411;50.024;19.220;2023-04-15T02:21:36;97693.14;;;7.43;100.00
35291;BME280;21411;50.024;19.220;2023-04-15T02:24:03;97690.58;;;7.38;100.00
35291;BME280;21411;50.024;19.220;2023-04-15T02:26:29;97693.92;;;7.36;100.00
35291;BME280;21411;50.024;19.220;2023-04-15T02:28:58;97702.59;;;7.35;100.00
35291;BME280;21411;50.024;19.220;2023-04-15T02:31:25;97706.25;;;7.34;100.00
35291;BME280;21411;50.024;19.220;2023-04-15T02:33:52;97705.20;;;7.31;100.00
35291;BME280;21411;50.024;19.220;2023-04-15T02:36:19;97709.29;;;7.26;100.00
35291;BME280;21411;50.024;19.220;2023-04-15T02:38:46;97709.37;;;7.20;100.00
35291;BME280;21411;50.024;19.220;2023-04-15T02:41:13;97707.27;;;7.13;100.00
35291;BME280;21411;50.024;19.220;2023-04-15T02:43:39;97712.70;;;7.06;100.00
35291;BME280;21411;50.024;19.220;2023-04-15T02:46:06;97711.77;;;6.99;100.00
35291;BME280;21411;50.024;19.220;2023-04-15T02:48:32;97713.83;;;6.95;100.00
35291;BME280;21411;50.024;19.220;2023-04-15T02:51:13;97715.81;;;6.93;100.00
35291;BME280;21411;50.024;19.220;2023-04-15T02:53:40;97719.77;;;6.87;100.00
35291;BME280;21411;50.024;19.220;2023-04-15T02:56:07;97722.78;;;6.82;100.00
35291;BME280;21411;50.024;19.220;2023-04-15T02:58:37;97720.35;;;6.76;100.00
35291;BME280;21411;50.024;19.220;2023-04-15T03:01:03;97723.27;;;6.72;100.00
35291;BME280;21411;50.024;19.220;2023-04-15T03:03:30;97721.59;;;6.69;100.00
35291;BME280;21411;50.024;19.220;2023-04-15T03:05:56;97724.48;;;6.65;100.00
35291;BME280;21411;50.024;19.220;2023-04-15T03:08:23;97726.48;;;6.62;100.00
35291;BME280;21411;50.024;19.220;2023-04-15T03:10:49;97725.38;;;6.57;100.00
35291;BME280;21411;50.024;19.220;2023-04-15T03:13:18;97734.71;;;6.58;100.00
35291;BME280;21411;50.024;19.220;2023-04-15T03:15:47;97734.14;;;6.58;100.00
35291;BME280;21411;50.024;19.220;2023-04-15T03:18:14;97730.54;;;6.59;100.00
35291;BME280;21411;50.024;19.220;2023-04-15T03:20:40;97731.04;;;6.62;100.00
35291;BME280;21411;50.024;19.220;2023-04-15T03:23:07;97733.41;;;6.66;100.00
35291;BME280;21411;50.024;19.220;2023-04-15T03:25:33;97731.95;;;6.70;100.00
35291;BME280;21411;50.024;19.220;2023-04-15T03:28:03;97730.73;;;6.71;100.00
35291;BME280;21411;50.024;19.220;2023-04-15T03:30:30;97735.48;;;6.74;100.00
35291;BME280;21411;50.024;19.220;2023-04-15T03:32:56;97736.29;;;6.75;100.00
35291;BME280;21411;50.024;19.220;2023-04-15T03:35:23;97736.14;;;6.75;100.00
35291;BME280;21411;50.024;19.220;2023-04-15T03:37:50;97741.64;;;6.75;100.00
35291;BME280;21411;50.024;19.220;2023-04-15T03:40:16;97746.06;;;6.75;100.00
35291;BME280;21411;50.024;19.220;2023-04-15T03:42:43;97750.50;;;6.74;100.00
35291;BME280;21411;50.024;19.220;2023-04-15T03:45:10;97752.20;;;6.73;100.00
35291;BME280;21411;50.024;19.220;2023-04-15T03:47:37;97756.36;;;6.71;100.00
35291;BME280;21411;50.024;19.220;2023-04-15T03:50:03;97762.14;;;6.72;100.00
35291;BME280;21411;50.024;19.220;2023-04-15T03:52:30;97762.92;;;6.73;100.00
35291;BME280;21411;50.024;19.220;2023-04-15T03:54:57;97761.80;;;6.79;100.00
35291;BME280;21411;50.024;19.220;2023-04-15T03:57:24;97758.23;;;6.90;100.00
35291;BME280;21411;50.024;19.220;2023-04-15T03:59:50;97760.16;;;7.02;100.00
35291;BME280;21411;50.024;19.220;2023-04-15T04:02:17;97762.56;;;7.13;100.00
35291;BME280;21411;50.024;19.220;2023-04-15T04:04:44;97760.59;;;7.20;100.00
35291;BME280;21411;50.024;19.220;2023-04-15T04:07:17;97758.85;;;7.27;100.00
35291;BME280;21411;50.024;19.220;2023-04-15T04:09:43;97763.45;;;7.32;100.00
35291;BME280;21411;50.024;19.220;2023-04-15T04:12:10;97767.17;;;7.34;100.00
35291;BME280;21411;50.024;19.220;2023-04-15T04:14:37;97769.75;;;7.38;100.00
35291;BME280;21411;50.024;19.220;2023-04-15T04:17:04;97776.30;;;7.40;100.00
35291;BME280;21411;50.024;19.220;2023-04-15T04:19:31;97781.75;;;7.42;100.00
35291;BME280;21411;50.024;19.220;2023-04-15T04:21:57;97778.64;;;7.42;100.00
35291;BME280;21411;50.024;19.220;2023-04-15T04:24:24;97786.08;;;7.41;100.00
35291;BME280;21411;50.024;19.220;2023-04-15T04:26:51;97789.15;;;7.43;100.00
35291;BME280;21411;50.024;19.220;2023-04-15T04:29:17;97792.17;;;7.45;100.00
35291;BME280;21411;50.024;19.220;2023-04-15T04:31:44;97793.02;;;7.48;100.00
35291;BME280;21411;50.024;19.220;2023-04-15T04:34:12;97793.77;;;7.52;100.00
35291;BME280;21411;50.024;19.220;2023-04-15T04:36:38;97795.81;;;7.56;100.00
35291;BME280;21411;50.024;19.220;2023-04-15T04:39:05;97795.95;;;7.61;100.00
35291;BME280;21411;50.024;19.220;2023-04-15T04:41:32;97795.59;;;7.68;100.00
35291;BME280;21411;50.024;19.220;2023-04-15T04:43:58;97799.90;;;7.75;100.00
35291;BME280;21411;50.024;19.220;2023-04-15T04:46:25;97802.14;;;7.77;100.00
35291;BME280;21411;50.024;19.220;2023-04-15T04:48:52;97802.28;;;7.80;100.00
35291;BME280;21411;50.024;19.220;2023-04-15T04:51:18;97806.16;;;7.85;100.00
35291;BME280;21411;50.024;19.220;2023-04-15T04:53:45;97806.12;;;7.91;100.00
35291;BME280;21411;50.024;19.220;2023-04-15T04:56:12;97804.75;;;7.97;100.00
35291;BME280;21411;50.024;19.220;2023-04-15T04:58:38;97806.95;;;8.05;100.00
35291;BME280;21411;50.024;19.220;2023-04-15T05:01:05;97806.38;;;8.18;100.00
35291;BME280;21411;50.024;19.220;2023-04-15T05:03:31;97804.71;;;8.25;100.00
35291;BME280;21411;50.024;19.220;2023-04-15T05:05:58;97807.60;;;8.34;100.00
35291;BME280;21411;50.024;19.220;2023-04-15T05:08:24;97811.07;;;8.58;100.00
35291;BME280;21411;50.024;19.220;2023-04-15T05:10:51;97818.32;;;8.83;100.00
35291;BME280;21411;50.024;19.220;2023-04-15T05:13:18;97815.11;;;9.21;100.00
35291;BME280;21411;50.024;19.220;2023-04-15T05:15:47;97818.97;;;9.48;100.00
35291;BME280;21411;50.024;19.220;2023-04-15T05:18:13;97821.59;;;9.73;100.00
35291;BME280;21411;50.024;19.220;2023-04-15T05:20:40;97821.98;;;9.98;100.00
35291;BME280;21411;50.024;19.220;2023-04-15T05:23:06;97820.43;;;10.21;100.00
35291;BME280;21411;50.024;19.220;2023-04-15T05:25:33;97817.43;;;10.46;100.00
35291;BME280;21411;50.024;19.220;2023-04-15T05:27:59;97816.52;;;10.73;100.00
35291;BME280;21411;50.024;19.220;2023-04-15T05:30:26;97819.55;;;10.98;100.00
35291;BME280;21411;50.024;19.220;2023-04-15T05:32:53;97821.73;;;11.41;100.00
35291;BME280;21411;50.024;19.220;2023-04-15T05:35:19;97820.27;;;11.73;100.00
35291;BME280;21411;50.024;19.220;2023-04-15T05:37:46;97817.59;;;12.03;100.00
35291;BME280;21411;50.024;19.220;2023-04-15T05:40:12;97818.91;;;12.43;100.00
35291;BME280;21411;50.024;19.220;2023-04-15T05:42:39;97823.09;;;12.73;98.74
35291;BME280;21411;50.024;19.220;2023-04-15T05:45:06;97830.08;;;12.63;98.47
35291;BME280;21411;50.024;19.220;2023-04-15T05:47:35;97836.42;;;12.65;96.71
35291;BME280;21411;50.024;19.220;2023-04-15T05:50:02;97840.17;;;12.58;95.24
35291;BME280;21411;50.024;19.220;2023-04-15T05:52:30;97841.88;;;12.89;92.81
35291;BME280;21411;50.024;19.220;2023-04-15T05:54:57;97843.20;;;13.22;90.20
35291;BME280;21411;50.024;19.220;2023-04-15T05:57:23;97847.79;;;13.33;88.60
35291;BME280;21411;50.024;19.220;2023-04-15T05:59:50;97854.47;;;13.42;87.53
35291;BME280;21411;50.024;19.220;2023-04-15T06:02:19;97848.67;;;13.61;86.45
35291;BME280;21411;50.024;19.220;2023-04-15T06:04:46;97846.16;;;13.90;85.68
35291;BME280;21411;50.024;19.220;2023-04-15T06:07:13;97846.86;;;14.19;85.13
35291;BME280;21411;50.024;19.220;2023-04-15T06:09:39;97847.17;;;14.39;83.84
35291;BME280;21411;50.024;19.220;2023-04-15T06:12:06;97847.99;;;14.19;81.64
35291;BME280;21411;50.024;19.220;2023-04-15T06:14:37;97847.46;;;13.63;80.99
35291;BME280;21411;50.024;19.220;2023-04-15T06:17:06;97852.89;;;13.17;81.97
35291;BME280;21411;50.024;19.220;2023-04-15T06:19:33;97862.42;;;12.96;83.81
35291;BME280;21411;50.024;19.220;2023-04-15T06:22:00;97867.04;;;12.89;83.19
35291;BME280;21411;50.024;19.220;2023-04-15T06:24:27;97865.29;;;12.90;83.08
35291;BME280;21411;50.024;19.220;2023-04-15T06:26:54;97860.00;;;13.14;82.32
35291;BME280;21411;50.024;19.220;2023-04-15T06:29:21;97855.29;;;13.24;81.15
35291;BME280;21411;50.024;19.220;2023-04-15T06:31:47;97852.89;;;13.30;80.26
35291;BME280;21411;50.024;19.220;2023-04-15T06:34:16;97856.20;;;13.35;79.81
35291;BME280;21411;50.024;19.220;2023-04-15T06:36:42;97863.42;;;13.45;79.41
35291;BME280;21411;50.024;19.220;2023-04-15T06:39:09;97864.71;;;13.45;78.81
35291;BME280;21411;50.024;19.220;2023-04-15T06:41:35;97864.98;;;13.33;78.76
35291;BME280;21411;50.024;19.220;2023-04-15T06:44:02;97868.96;;;13.34;79.22
35291;BME280;21411;50.024;19.220;2023-04-15T06:46:29;97875.80;;;13.41;79.51
35291;BME280;21411;50.024;19.220;2023-04-15T06:48:55;97880.55;;;13.44;78.67
35291;BME280;21411;50.024;19.220;2023-04-15T06:51:22;97887.25;;;13.43;79.13
35291;BME280;21411;50.024;19.220;2023-04-15T06:53:49;97887.65;;;13.44;78.18
35291;BME280;21411;50.024;19.220;2023-04-15T06:56:15;97885.84;;;13.41;78.06
35291;BME280;21411;50.024;19.220;2023-04-15T06:58:42;97889.84;;;13.45;78.40
35291;BME280;21411;50.024;19.220;2023-04-15T07:01:08;97887.08;;;13.53;77.95
35291;BME280;21411;50.024;19.220;2023-04-15T07:03:35;97888.86;;;13.57;77.66
35291;BME280;21411;50.024;19.220;2023-04-15T07:06:01;97891.93;;;13.64;76.81
35291;BME280;21411;50.024;19.220;2023-04-15T07:08:32;97890.13;;;13.57;75.05
35291;BME280;21411;50.024;19.220;2023-04-15T07:10:59;97886.67;;;13.59;75.87
35291;BME280;21411;50.024;19.220;2023-04-15T07:13:26;97886.48;;;13.78;76.46
35291;BME280;21411;50.024;19.220;2023-04-15T07:15:53;97889.21;;;13.85;74.37
35291;BME280;21411;50.024;19.220;2023-04-15T07:18:20;97890.20;;;13.80;73.73
35291;BME280;21411;50.024;19.220;2023-04-15T07:20:46;97895.98;;;13.74;72.96
35291;BME280;21411;50.024;19.220;2023-04-15T07:23:13;97902.83;;;13.75;73.70
35291;BME280;21411;50.024;19.220;2023-04-15T07:25:39;97900.46;;;13.88;73.58
35291;BME280;21411;50.024;19.220;2023-04-15T07:28:06;97900.80;;;14.03;72.97
35291;BME280;21411;50.024;19.220;2023-04-15T07:30:32;97897.54;;;14.05;72.37
35291;BME280;21411;50.024;19.220;2023-04-15T07:33:00;97903.50;;;13.99;72.22
35291;BME280;21411;50.024;19.220;2023-04-15T07:35:27;97903.56;;;14.02;72.01
35291;BME280;21411;50.024;19.220;2023-04-15T07:37:54;97900.84;;;14.17;71.49
35291;BME280;21411;50.024;19.220;2023-04-15T07:40:21;97898.80;;;14.36;70.48
35291;BME280;21411;50.024;19.220;2023-04-15T07:42:47;97897.83;;;14.40;70.26
35291;BME280;21411;50.024;19.220;2023-04-15T07:45:14;97899.10;;;14.55;70.32
35291;BME280;21411;50.024;19.220;2023-04-15T07:47:41;97897.20;;;14.63;69.67
35291;BME280;21411;50.024;19.220;2023-04-15T07:50:08;97897.52;;;14.79;69.44
35291;BME280;21411;50.024;19.220;2023-04-15T07:52:36;97897.30;;;14.97;69.31
35291;BME280;21411;50.024;19.220;2023-04-15T07:55:06;97896.02;;;15.09;67.98
35291;BME280;21411;50.024;19.220;2023-04-15T07:57:36;97895.17;;;15.14;67.32
35291;BME280;21411;50.024;19.220;2023-04-15T08:00:03;97892.84;;;15.10;66.15
35291;BME280;21411;50.024;19.220;2023-04-15T08:02:30;97895.09;;;15.08;66.53
35291;BME280;21411;50.024;19.220;2023-04-15T08:04:58;97895.40;;;15.31;66.66
35291;BME280;21411;50.024;19.220;2023-04-15T08:07:24;97897.42;;;15.58;66.14
35291;BME280;21411;50.024;19.220;2023-04-15T08:09:51;97896.73;;;15.82;65.70
35291;BME280;21411;50.024;19.220;2023-04-15T08:12:18;97891.17;;;15.78;64.39
35291;BME280;21411;50.024;19.220;2023-04-15T08:14:44;97888.57;;;15.81;64.98
35291;BME280;21411;50.024;19.220;2023-04-15T08:17:12;97888.41;;;15.96;65.48
35291;BME280;21411;50.024;19.220;2023-04-15T08:19:39;97886.05;;;16.03;64.33
35291;BME280;21411;50.024;19.220;2023-04-15T08:22:06;97887.18;;;16.02;64.60
35291;BME280;21411;50.024;19.220;2023-04-15T08:24:32;97884.66;;;16.02;64.29
35291;BME280;21411;50.024;19.220;2023-04-15T08:26:59;97883.55;;;15.98;63.81
35291;BME280;21411;50.024;19.220;2023-04-15T08:29:26;97881.55;;;16.08;63.83
35291;BME280;21411;50.024;19.220;2023-04-15T08:31:53;97885.74;;;16.27;63.48
35291;BME280;21411;50.024;19.220;2023-04-15T08:34:19;97887.08;;;16.32;62.47
35291;BME280;21411;50.024;19.220;2023-04-15T08:36:46;97885.80;;;16.46;63.02
35291;BME280;21411;50.024;19.220;2023-04-15T08:39:12;97887.88;;;16.79;62.87
35291;BME280;21411;50.024;19.220;2023-04-15T08:41:50;97890.81;;;17.07;60.54
35291;BME280;21411;50.024;19.220;2023-04-15T08:44:17;97888.09;;;17.16;59.55
35291;BME280;21411;50.024;19.220;2023-04-15T08:46:43;97890.61;;;17.22;59.70
35291;BME280;21411;50.024;19.220;2023-04-15T08:49:11;97887.61;;;17.36;60.18
35291;BME280;21411;50.024;19.220;2023-04-15T08:51:39;97887.31;;;17.37;59.46
35291;BME280;21411;50.024;19.220;2023-04-15T08:54:07;97884.39;;;17.34;58.97
35291;BME280;21411;50.024;19.220;2023-04-15T08:56:34;97885.52;;;17.37;58.26
35291;BME280;21411;50.024;19.220;2023-04-15T08:59:02;97894.48;;;17.34;57.23
35291;BME280;21411;50.024;19.220;2023-04-15T09:01:29;97895.02;;;17.19;56.42
35291;BME280;21411;50.024;19.220;2023-04-15T09:03:55;97894.04;;;17.11;56.46
35291;BME280;21411;50.024;19.220;2023-04-15T09:06:22;97895.10;;;17.00;56.28
35291;BME280;21411;50.024;19.220;2023-04-15T09:08:50;97893.16;;;16.88;56.50
35291;BME280;21411;50.024;19.220;2023-04-15T09:11:17;97893.36;;;16.89;56.90
35291;BME280;21411;50.024;19.220;2023-04-15T09:13:44;97891.00;;;16.99;57.41
35291;BME280;21411;50.024;19.220;2023-04-15T09:16:12;97890.27;;;17.11;57.31
35291;BME280;21411;50.024;19.220;2023-04-15T09:18:39;97886.35;;;17.17;57.33
35291;BME280;21411;50.024;19.220;2023-04-15T09:21:10;97887.83;;;17.04;56.35
35291;BME280;21411;50.024;19.220;2023-04-15T09:23:39;97892.83;;;16.79;55.04
35291;BME280;21411;50.024;19.220;2023-04-15T09:26:06;97897.57;;;16.59;54.32
35291;BME280;21411;50.024;19.220;2023-04-15T09:28:40;97895.42;;;16.52;54.62
35291;BME280;21411;50.024;19.220;2023-04-15T09:31:07;97890.70;;;16.61;54.90
35291;BME280;21411;50.024;19.220;2023-04-15T09:33:53;97890.65;;;16.60;55.13
35291;BME280;21411;50.024;19.220;2023-04-15T09:36:21;97895.60;;;16.49;55.50
35291;BME280;21411;50.024;19.220;2023-04-15T09:38:56;97895.11;;;16.38;56.04
35291;BME280;21411;50.024;19.220;2023-04-15T09:41:24;97891.84;;;16.31;56.41
35291;BME280;21411;50.024;19.220;2023-04-15T09:43:51;97896.07;;;16.26;56.61
35291;BME280;21411;50.024;19.220;2023-04-15T09:46:17;97894.04;;;16.22;56.00
35291;BME280;21411;50.024;19.220;2023-04-15T09:48:44;97894.89;;;16.21;56.47
35291;BME280;21411;50.024;19.220;2023-04-15T09:51:11;97894.45;;;16.25;55.85
35291;BME280;21411;50.024;19.220;2023-04-15T09:53:37;97892.05;;;16.27;56.48
35291;BME280;21411;50.024;19.220;2023-04-15T09:56:04;97889.60;;;16.40;56.43
35291;BME280;21411;50.024;19.220;2023-04-15T09:58:34;97888.36;;;16.44;55.53
35291;BME280;21411;50.024;19.220;2023-04-15T10:01:04;97887.76;;;16.58;55.76
35291;BME280;21411;50.024;19.220;2023-04-15T10:03:35;97885.49;;;16.82;54.54
35291;BME280;21411;50.024;19.220;2023-04-15T10:06:04;97884.09;;;17.03;53.14
35291;BME280;21411;50.024;19.220;2023-04-15T10:08:32;97879.15;;;17.17;52.81
35291;BME280;21411;50.024;19.220;2023-04-15T10:11:01;97879.69;;;17.30;51.64
35291;BME280;21411;50.024;19.220;2023-04-15T10:13:29;97877.83;;;17.37;50.77
35291;BME280;21411;50.024;19.220;2023-04-15T10:16:14;97880.24;;;17.25;50.28
35291;BME280;21411;50.024;19.220;2023-04-15T10:18:43;97879.92;;;17.20;50.65
35291;BME280;21411;50.024;19.220;2023-04-15T10:21:11;97884.86;;;17.22;50.62
35291;BME280;21411;50.024;19.220;2023-04-15T10:23:47;97878.38;;;17.30;50.66
35291;BME280;21411;50.024;19.220;2023-04-15T10:26:14;97874.20;;;17.42;50.68
35291;BME280;21411;50.024;19.220;2023-04-15T10:28:43;97876.20;;;17.49;50.55
35291;BME280;21411;50.024;19.220;2023-04-15T10:31:13;97873.16;;;17.51;50.60
35291;BME280;21411;50.024;19.220;2023-04-15T10:33:41;97869.29;;;17.77;52.46
35291;BME280;21411;50.024;19.220;2023-04-15T10:36:09;97868.28;;;18.08;51.63
35291;BME280;21411;50.024;19.220;2023-04-15T10:38:41;97872.59;;;18.25;51.36
35291;BME280;21411;50.024;19.220;2023-04-15T10:43:38;97874.13;;;18.46;49.73
35291;BME280;21411;50.024;19.220;2023-04-15T10:46:05;97873.96;;;18.36;49.97
35291;BME280;21411;50.024;19.220;2023-04-15T10:48:32;97875.02;;;18.15;49.21
35291;BME280;21411;50.024;19.220;2023-04-15T10:51:01;97873.31;;;18.02;48.83
35291;BME280;21411;50.024;19.220;2023-04-15T10:53:30;97876.46;;;18.10;49.66
35291;BME280;21411;50.024;19.220;2023-04-15T10:55:57;97875.20;;;18.27;49.44
35291;BME280;21411;50.024;19.220;2023-04-15T10:58:24;97873.20;;;18.49;50.52
35291;BME280;21411;50.024;19.220;2023-04-15T11:00:52;97870.48;;;18.71;49.89
35291;BME280;21411;50.024;19.220;2023-04-15T11:03:48;97876.77;;;18.71;48.61
35291;BME280;21411;50.024;19.220;2023-04-15T11:06:16;97880.30;;;18.45;48.19
35291;BME280;21411;50.024;19.220;2023-04-15T11:08:56;97881.67;;;18.22;48.22
35291;BME280;21411;50.024;19.220;2023-04-15T11:14:28;97883.40;;;18.51;49.42
35291;BME280;21411;50.024;19.220;2023-04-15T11:16:54;97884.75;;;18.82;49.94
35291;BME280;21411;50.024;19.220;2023-04-15T11:19:21;97885.17;;;19.13;50.34
35291;BME280;21411;50.024;19.220;2023-04-15T11:21:47;97880.48;;;19.42;49.50
35291;BME280;21411;50.024;19.220;2023-04-15T11:24:26;97879.07;;;19.58;48.25
35291;BME280;21411;50.024;19.220;2023-04-15T11:26:57;97876.14;;;19.46;47.39
35291;BME280;21411;50.024;19.220;2023-04-15T11:29:33;97873.02;;;19.44;47.29
35291;BME280;21411;50.024;19.220;2023-04-15T11:32:08;97870.89;;;19.63;47.82
35291;BME280;21411;50.024;19.220;2023-04-15T11:34:35;97863.36;;;19.91;48.13
35291;BME280;21411;50.024;19.220;2023-04-15T11:37:05;97862.69;;;20.09;47.31
35291;BME280;21411;50.024;19.220;2023-04-15T11:39:32;97863.39;;;20.17;46.48
35291;BME280;21411;50.024;19.220;2023-04-15T11:41:58;97863.96;;;20.08;46.18
35291;BME280;21411;50.024;19.220;2023-04-15T11:44:25;97867.75;;;19.98;47.05
35291;BME280;21411;50.024;19.220;2023-04-15T11:46:51;97871.41;;;19.90;46.78
35291;BME280;21411;50.024;19.220;2023-04-15T11:49:25;97868.97;;;19.81;46.68
35291;BME280;21411;50.024;19.220;2023-04-15T11:51:52;97874.62;;;19.68;46.84
35291;BME280;21411;50.024;19.220;2023-04-15T11:54:19;97876.27;;;19.60;46.98
35291;BME280;21411;50.024;19.220;2023-04-15T11:56:50;97878.84;;;19.61;47.30
35291;BME280;21411;50.024;19.220;2023-04-15T11:59:17;97877.48;;;19.65;46.99
35291;BME280;21411;50.024;19.220;2023-04-15T12:01:43;97875.45;;;19.60;46.54
35291;BME280;21411;50.024;19.220;2023-04-15T12:04:14;97876.53;;;19.51;46.08
35291;BME280;21411;50.024;19.220;2023-04-15T12:06:42;97878.86;;;19.27;45.93
35291;BME280;21411;50.024;19.220;2023-04-15T12:09:13;97879.19;;;19.21;46.11
35291;BME280;21411;50.024;19.220;2023-04-15T12:11:43;97876.98;;;18.98;45.46
35291;BME280;21411;50.024;19.220;2023-04-15T12:16:51;97880.27;;;18.92;45.98
35291;BME280;21411;50.024;19.220;2023-04-15T12:19:27;97879.01;;;18.88;45.93
35291;BME280;21411;50.024;19.220;2023-04-15T12:22:00;97884.55;;;18.87;45.77
35291;BME280;21411;50.024;19.220;2023-04-15T12:24:30;97888.36;;;18.79;45.44
35291;BME280;21411;50.024;19.220;2023-04-15T12:27:01;97884.70;;;18.57;45.09
35291;BME280;21411;50.024;19.220;2023-04-15T12:29:29;97885.90;;;18.36;45.22
35291;BME280;21411;50.024;19.220;2023-04-15T12:32:15;97882.16;;;18.28;45.57
35291;BME280;21411;50.024;19.220;2023-04-15T12:34:44;97883.11;;;18.26;45.61
35291;BME280;21411;50.024;19.220;2023-04-15T12:37:14;97884.02;;;18.26;45.94
35291;BME280;21411;50.024;19.220;2023-04-15T12:39:44;97881.77;;;18.25;45.59
35291;BME280;21411;50.024;19.220;2023-04-15T12:42:11;97879.41;;;18.28;46.16
35291;BME280;21411;50.024;19.220;2023-04-15T12:44:38;97876.86;;;18.41;46.59
35291;BME280;21411;50.024;19.220;2023-04-15T12:47:06;97874.66;;;18.55;46.43
35291;BME280;21411;50.024;19.220;2023-04-15T12:49:33;97878.52;;;18.68;45.77
35291;BME280;21411;50.024;19.220;2023-04-15T12:52:01;97877.33;;;18.72;44.90
35291;BME280;21411;50.024;19.220;2023-04-15T12:54:29;97878.06;;;18.77;44.75
35291;BME280;21411;50.024;19.220;2023-04-15T12:56:56;97878.65;;;18.75;44.76
35291;BME280;21411;50.024;19.220;2023-04-15T12:59:23;97882.58;;;18.73;44.77
35291;BME280;21411;50.024;19.220;2023-04-15T13:01:51;97882.55;;;18.72;44.91